Latest Weather Observations for Lismore Airport

IDN60801

Issued at 2:32 pm EST Friday 28 August 2015 (issued every 30 minutes, with the page automatically refreshed every 10 minutes)

About weather observations | Map of weather stations | Latest weather observations for NSW | Other Formats
Station Details ID: 058214 Name: LISMORE AIRPORT AWS Lat: -28.83 Lon: 153.26 Height: 9.21 m
Data from the previous 72 hours. | See also: Recent months at Lismore Airport
Date/Time
EST
Temp
°C
App
Temp
°C
Dew
Point
Rel
Hum
%
Delta-T
°C
Wind Press
QNH
hPa
Press
MSL
hPa
Rain
since 9 am
mm
Dir
 
Spd
km/h
Gust
km/h
Spd
kts
Gust
kts
28/02:30pm 23.0 18.4 5.4 32 8.8 WNW 19 28 10 15 1018.6 1018.6 0.0
28/02:00pm 22.2 17.8 4.7 32 8.6 WSW 17 24 9 13 1018.8 1018.8 0.0
28/01:30pm 22.2 18.3 7.2 38 7.7 W 17 26 9 14 1019.2 1019.2 0.0
28/01:00pm 21.9 17.4 7.0 38 7.6 SW 20 30 11 16 1019.8 1019.8 0.0
28/12:30pm 21.1 16.6 5.9 37 7.6 SW 19 30 10 16 1020.1 1020.1 0.0
28/12:00pm 20.9 17.9 7.5 42 6.9 W 13 20 7 11 1020.7 1020.7 0.0
28/11:30am 20.5 16.9 8.2 45 6.4 SW 17 26 9 14 1021.2 1021.2 0.0
28/11:00am 20.5 16.1 7.5 43 6.6 WSW 20 32 11 17 1021.6 1021.6 0.0
28/10:30am 19.8 15.9 8.5 48 5.9 SW 19 26 10 14 1022.1 1022.1 0.0
28/10:00am 19.5 16.2 9.7 53 5.2 WSW 17 24 9 13 1022.1 1022.1 0.0
28/09:30am 18.8 16.4 12.8 68 3.4 SW 17 20 9 11 1022.3 1022.3 0.0
28/09:00am 18.1 15.7 10.2 60 4.2 W 13 20 7 11 1022.4 1022.4 4.0
28/08:30am 17.6 17.3 14.5 82 1.8 WNW 9 11 5 6 1022.4 1022.4 4.0
28/08:00am 15.4 16.2 12.7 84 1.5 CALM 0 0 0 0 1022.0 1022.0 4.0
28/07:30am 14.5 14.0 13.7 95 0.4 N 9 13 5 7 1022.0 1022.0 4.0
28/07:21am 14.1 13.5 13.5 96 0.3 N 9 11 5 6 1021.9 1021.9 4.0
28/07:07am 13.8 13.5 13.3 97 0.3 NE 7 11 4 6 1021.6 1021.6 4.0
28/07:00am 12.7 12.9 11.8 94 0.5 ENE 2 11 1 6 1021.5 1021.5 4.0
28/06:58am 12.7 13.3 11.8 94 0.5 CALM 0 2 0 1 1021.5 1021.5 4.0
28/06:54am 12.7 13.2 11.6 93 0.6 CALM 0 0 0 0 1021.5 1021.5 4.0
28/06:43am 13.0 13.5 11.7 92 0.7 CALM 0 0 0 0 1021.2 1021.2 4.0
28/06:38am 13.2 13.8 11.9 92 0.7 CALM 0 0 0 0 1021.2 1021.2 4.0
28/06:30am 13.5 14.3 12.4 93 0.6 CALM 0 7 0 4 1021.1 1021.1 4.0
28/06:00am 14.2 15.2 13.2 94 0.6 CALM 0 0 0 0 1020.8 1020.8 4.0
28/05:30am 14.4 14.1 13.4 94 0.6 N 7 9 4 5 1020.7 1020.7 4.0
28/05:00am 14.5 14.5 13.7 95 0.4 N 6 9 3 5 1020.5 1020.5 4.0
28/04:30am 14.3 15.5 13.7 96 0.3 CALM 0 0 0 0 1020.4 1020.4 4.0
28/04:00am 14.2 15.3 13.4 95 0.4 CALM 0 0 0 0 1020.3 1020.3 4.0
28/03:30am 14.3 15.4 13.5 95 0.4 CALM 0 0 0 0 1020.0 1020.0 4.0
28/03:00am 14.4 15.5 13.6 95 0.4 CALM 0 0 0 0 1019.7 1019.7 4.0
28/02:30am 14.5 15.7 13.7 95 0.4 CALM 0 0 0 0 1019.9 1019.9 4.0
28/02:00am 14.5 15.7 13.7 95 0.4 CALM 0 0 0 0 1019.9 1019.9 4.0
28/01:30am 14.4 14.5 13.8 96 0.3 NNE 6 15 3 8 1019.9 1019.9 4.0
28/01:00am 14.4 14.8 13.8 96 0.3 NNE 4 9 2 5 1020.1 1020.1 4.0
28/12:30am 14.4 14.4 13.6 95 0.4 NNE 6 9 3 5 1020.7 1020.7 3.8
28/12:00am 14.5 14.5 13.7 95 0.4 NNE 6 9 3 5 1020.7 1020.7 3.6
 
Date/Time
EST
Temp
°C
App
Temp
°C
Dew
Point
Rel
Hum
%
Delta-T
°C
Wind Press
QNH
hPa
Press
MSL
hPa
Rain
since 9 am
mm
Dir
 
Spd
km/h
Gust
km/h
Spd
kts
Gust
kts
27/11:30pm 14.4 15.5 13.6 95 0.4 CALM 0 0 0 0 1020.5 1020.5 3.6
27/11:00pm 14.3 15.4 13.5 95 0.4 CALM 0 0 0 0 1020.6 1020.6 3.4
27/10:30pm 14.3 15.4 13.5 95 0.4 CALM 0 0 0 0 1020.6 1020.6 3.4
27/10:00pm 14.2 15.3 13.4 95 0.4 CALM 0 0 0 0 1020.5 1020.5 3.2
27/09:30pm 14.1 15.1 13.3 95 0.4 CALM 0 2 0 1 1020.6 1020.6 3.2
27/09:00pm 14.2 13.9 13.4 95 0.4 NNE 7 9 4 5 1020.7 1020.7 3.2
27/08:30pm 14.2 15.3 13.4 95 0.4 CALM 0 0 0 0 1020.4 1020.4 3.2
27/08:00pm 14.1 15.1 13.1 94 0.5 CALM 0 0 0 0 1020.4 1020.4 3.2
27/07:30pm 14.2 15.2 13.2 94 0.6 CALM 0 0 0 0 1020.1 1020.1 3.2
27/07:00pm 14.3 12.9 13.5 95 0.4 NNW 13 15 7 8 1019.8 1019.8 3.2
27/06:30pm 14.3 14.0 13.2 93 0.6 NNW 7 9 4 5 1019.4 1019.4 3.2
27/06:00pm 14.5 13.9 13.4 93 0.6 N 9 13 5 7 1019.5 1019.5 3.2
27/05:30pm 14.6 13.9 13.3 92 0.7 NNE 9 11 5 6 1019.3 1019.3 3.0
27/05:00pm 14.8 14.2 13.5 92 0.7 NNE 9 13 5 7 1019.3 1019.3 3.0
27/04:30pm 15.1 13.8 13.8 92 0.7 N 13 15 7 8 1018.8 1018.8 2.8
27/04:00pm 15.5 14.8 14.2 92 0.7 N 11 15 6 8 1018.7 1018.7 2.8
27/03:30pm 15.9 16.2 14.4 91 0.9 NNE 6 7 3 4 1018.8 1018.8 1.8
27/03:00pm 16.1 15.3 14.1 88 1.1 N 11 13 6 7 1019.2 1019.2 0.8
27/02:30pm 17.1 17.3 13.2 78 2.2 SW 4 6 2 3 1018.6 1018.6 0.2
27/02:00pm 16.7 16.2 12.7 77 2.2 WSW 7 9 4 5 1018.8 1018.8 0.2
27/01:30pm 17.1 16.6 12.6 75 2.5 SW 7 9 4 5 1019.2 1019.2 0.2
27/01:00pm 17.4 16.9 12.5 73 2.7 SW 7 11 4 6 1019.6 1019.6 0.0
27/12:30pm 18.1 17.6 12.8 71 3.0 WSW 7 9 4 5 1020.2 1020.2 0.0
27/12:00pm 18.1 17.3 13.0 72 2.9 WSW 9 11 5 6 1020.7 1020.7 0.0
27/11:30am 18.2 16.2 10.3 60 4.2 SW 11 15 6 8 1020.8 1020.8 0.0
27/11:00am 19.0 17.9 11.8 63 4.0 SSW 9 15 5 8 1021.1 1021.1 0.0
27/10:30am 17.4 17.8 11.4 68 3.3 CALM 0 0 0 0 1021.6 1021.6 0.0
27/10:00am 16.1 17.0 12.8 81 1.8 CALM 0 0 0 0 1021.9 1021.9 0.0
27/09:30am 15.3 14.6 11.5 78 2.0 NW 6 7 3 4 1021.9 1021.9 0.0
27/09:00am 15.1 15.6 11.5 79 1.9 CALM 0 0 0 0 1021.7 1021.7 0.0
27/08:30am 14.6 15.1 11.7 83 1.6 CALM 0 0 0 0 1021.7 1021.7 0.0
27/08:00am 13.8 13.7 10.8 82 1.6 ENE 2 9 1 5 1021.4 1021.4 0.0
27/07:30am 13.2 12.0 10.4 83 1.5 NNW 7 13 4 7 1021.2 1021.2 0.0
27/07:00am 12.6 9.8 10.1 85 1.3 NNW 15 17 8 9 1020.4 1020.4 0.0
27/06:30am 12.2 11.4 9.6 84 1.3 N 4 11 2 6 1020.1 1020.1 0.0
27/06:00am 12.1 9.9 9.3 83 1.4 N 11 15 6 8 1020.2 1020.2 0.0
27/05:30am 11.9 10.6 9.8 87 1.1 N 7 9 4 5 1020.0 1020.0 0.0
27/05:00am 11.8 11.7 9.5 86 1.2 CALM 0 0 0 0 1020.4 1020.4 0.0
27/04:30am 12.0 10.8 9.7 86 1.2 NNE 6 9 3 5 1020.3 1020.3 0.0
27/04:00am 12.2 10.0 9.4 83 1.4 NNE 11 15 6 8 1020.4 1020.4 0.0
27/03:30am 12.3 9.6 9.1 81 1.6 N 13 19 7 10 1020.0 1020.0 0.0
27/03:00am 11.8 9.0 9.9 88 1.0 N 15 17 8 9 1019.7 1019.7 0.0
27/02:30am 11.3 9.3 10.0 92 0.7 N 11 17 6 9 1020.1 1020.1 0.0
27/02:00am 12.0 11.3 10.1 88 1.0 SE 4 9 2 5 1019.8 1019.8 0.0
27/01:30am 11.8 10.2 10.2 90 0.8 N 9 11 5 6 1020.2 1020.2 0.0
27/01:00am 11.7 9.3 10.1 90 0.8 NNW 13 15 7 8 1020.4 1020.4 0.0
27/12:30am 12.1 10.1 10.3 89 0.9 NNE 11 17 6 9 1020.4 1020.4 0.0
27/12:00am 12.1 8.8 10.8 92 0.7 NNW 19 19 10 10 1020.5 1020.5 0.0
 
Date/Time
EST
Temp
°C
App
Temp
°C
Dew
Point
Rel
Hum
%
Delta-T
°C
Wind Press
QNH
hPa
Press
MSL
hPa
Rain
since 9 am
mm
Dir
 
Spd
km/h
Gust
km/h
Spd
kts
Gust
kts
26/11:30pm 10.9 9.2 9.7 92 0.6 N 9 13 5 7 1020.6 1020.6 0.0
26/11:00pm 11.2 10.1 9.8 91 0.7 NNW 6 7 3 4 1020.6 1020.6 0.0
26/10:30pm 11.9 10.5 11.0 94 0.5 NNW 9 13 5 7 1021.1 1021.1 0.0
26/10:00pm 12.5 10.9 11.4 93 0.6 N 11 13 6 7 1021.0 1021.0 0.0
26/09:30pm 12.7 12.3 11.1 90 0.8 ESE 4 9 2 5 1020.7 1020.7 0.0
26/09:00pm 13.2 11.7 10.7 85 1.3 N 9 13 5 7 1020.8 1020.8 0.0
26/08:30pm 14.5 13.3 12.9 90 0.9 N 11 13 6 7 1020.4 1020.4 0.0
26/08:00pm 15.2 15.9 12.3 83 1.6 CALM 0 0 0 0 1020.1 1020.1 0.0
26/07:30pm 16.5 15.5 13.4 82 1.7 NNW 11 15 6 8 1019.9 1019.9 0.0
26/07:00pm 16.1 15.6 12.8 81 1.8 WNW 7 11 4 6 1019.3 1019.3 0.0
26/06:30pm 17.0 16.8 10.4 65 3.5 NW 2 9 1 5 1018.7 1018.7 0.0
26/06:00pm 20.1 19.7 12.3 61 4.4 NE 6 9 3 5 1018.2 1018.2 0.0
26/05:30pm 19.8 18.6 7.9 46 6.1 WSW 4 9 2 5 1017.8 1017.8 0.0
26/05:00pm 22.9 20.5 7.0 36 8.2 SSE 9 11 5 6 1017.5 1017.5 0.0
26/04:30pm 24.8 22.2 6.1 30 9.6 S 9 13 5 7 1017.1 1017.1 0.0
26/04:00pm 26.4 23.1 6.4 28 10.4 WNW 13 22 7 12 1016.8 1016.8 0.0
26/03:30pm 26.6 24.8 7.1 29 10.3 NE 6 15 3 8 1016.8 1016.8 0.0
26/03:00pm 25.9 22.9 6.0 28 10.3 SSW 11 17 6 9 1016.8 1016.8 0.0
26/02:30pm 25.5 22.7 5.1 27 10.3 SW 9 17 5 9 1017.1 1017.1 0.0
26/02:00pm 25.7 21.8 5.3 27 10.4 SW 15 20 8 11 1017.3 1017.3 0.0
26/01:30pm 25.3 21.1 3.9 25 10.6 SW 15 20 8 11 1017.8 1017.8 0.0
26/01:00pm 25.4 20.9 4.0 25 10.6 WSW 17 24 9 13 1018.3 1018.3 0.0
26/12:30pm 24.9 19.7 3.5 25 10.5 WSW 20 24 11 13 1018.6 1018.6 0.0
26/12:00pm 24.5 19.5 3.8 26 10.2 W 19 28 10 15 1019.0 1019.0 0.0
26/11:30am 24.1 19.6 4.0 27 9.9 W 17 24 9 13 1019.4 1019.4 0.0
26/11:00am 23.6 19.5 6.4 33 8.8 W 17 26 9 14 1019.9 1019.9 0.0
26/10:30am 22.9 19.3 6.6 35 8.4 W 15 22 8 12 1020.3 1020.3 0.0
26/10:00am 22.1 18.2 7.1 38 7.7 WNW 17 22 9 12 1020.4 1020.4 0.0
26/09:30am 20.6 18.7 7.6 43 6.7 NW 7 15 4 8 1020.7 1020.7 0.0
26/09:00am 19.0 17.7 11.1 60 4.3 ENE 9 13 5 7 1020.8 1020.8 0.2
26/08:30am 16.8 17.4 11.9 73 2.7 CALM 0 6 0 3 1020.8 1020.8 0.2
26/08:00am 15.3 15.7 12.6 84 1.5 NE 2 6 1 3 1020.8 1020.8 0.2
26/07:30am 13.1 12.4 12.0 93 0.6 NE 7 9 4 5 1020.5 1020.5 0.2
26/07:00am 12.2 11.0 11.6 96 0.3 N 9 13 5 7 1020.0 1020.0 0.2
26/06:30am 11.0 9.8 10.2 95 0.4 NNE 7 9 4 5 1019.7 1019.7 0.2
26/06:00am 11.1 9.5 10.3 95 0.4 NNE 9 11 5 6 1019.4 1019.4 0.2
26/05:30am 11.3 9.8 10.5 95 0.4 NNE 9 11 5 6 1019.2 1019.2 0.2
26/05:00am 11.3 10.2 10.7 96 0.3 NNE 7 11 4 6 1019.1 1019.1 0.2
26/04:30am 11.0 8.6 10.1 94 0.5 N 13 15 7 8 1018.9 1018.9 0.2
26/04:00am 12.1 11.0 10.8 92 0.7 NNE 7 11 4 6 1018.7 1018.7 0.2
26/03:30am 12.0 11.5 10.7 92 0.7 N 4 7 2 4 1018.3 1018.3 0.2
26/03:00am 12.2 11.1 10.6 90 0.8 N 7 11 4 6 1018.4 1018.4 0.2
26/02:30am 13.9 14.3 11.2 84 1.4 CALM 0 0 0 0 1018.4 1018.4 0.2
26/02:00am 14.0 13.2 11.0 82 1.6 NE 6 9 3 5 1018.6 1018.6 0.2
26/01:30am 12.9 10.6 10.4 85 1.3 N 13 15 7 8 1018.7 1018.7 0.2
26/01:00am 13.9 12.2 11.1 83 1.5 NNE 11 15 6 8 1019.1 1019.1 0.2
26/12:30am 14.2 12.1 11.0 81 1.7 N 13 15 7 8 1019.1 1019.1 0.2
26/12:00am 14.0 12.1 10.4 79 1.9 N 11 15 6 8 1019.0 1019.0 0.2
 
Date/Time
EST
Temp
°C
App
Temp
°C
Dew
Point
Rel
Hum
%
Delta-T
°C
Wind Press
QNH
hPa
Press
MSL
hPa
Rain
since 9 am
mm
Dir
 
Spd
km/h
Gust
km/h
Spd
kts
Gust
kts
25/11:30pm 15.0 13.2 10.8 76 2.2 NNE 11 15 6 8 1018.8 1018.8 0.2
25/11:00pm 15.4 14.5 11.2 76 2.2 NE 7 9 4 5 1018.9 1018.9 0.2
25/10:30pm 16.2 16.1 10.9 71 2.8 NNE 2 9 1 5 1018.8 1018.8 0.2
25/10:00pm 16.6 15.6 10.9 69 3.0 NE 7 13 4 7 1018.6 1018.6 0.2
25/09:30pm 18.0 16.5 10.6 62 4.0 NNW 9 17 5 9 1018.5 1018.5 0.2
25/09:00pm 18.8 17.2 10.1 57 4.6 NNW 9 13 5 7 1018.1 1018.1 0.2
25/08:30pm 20.6 17.9 10.4 52 5.5 W 15 24 8 13 1017.9 1017.9 0.2
25/08:00pm 18.7 16.2 11.0 61 4.2 NW 15 17 8 9 1017.6 1017.6 0.2
25/07:30pm 20.4 18.1 11.9 58 4.7 W 15 24 8 13 1017.2 1017.2 0.2
25/07:00pm 18.4 19.2 12.6 69 3.2 CALM 0 0 0 0 1016.8 1016.8 0.2
25/06:30pm 18.9 17.9 12.2 65 3.7 WSW 9 11 5 6 1016.5 1016.5 0.2
25/06:00pm 21.2 19.4 12.1 56 5.1 WNW 13 17 7 9 1015.8 1015.8 0.2
25/05:30pm 23.2 21.3 11.9 49 6.4 NW 13 17 7 9 1015.5 1015.5 0.2
25/05:00pm 25.0 23.2 12.2 44 7.3 NW 13 19 7 10 1015.1 1015.1 0.2
25/04:30pm 26.2 23.8 12.6 43 7.9 NW 17 24 9 13 1014.9 1014.9 0.2
25/04:00pm 26.5 23.0 12.2 41 8.2 NW 22 39 12 21 1014.5 1014.5 0.2
25/03:30pm 26.8 22.9 12.1 40 8.5 NW 24 35 13 19 1014.5 1014.5 0.2
25/03:00pm 27.2 23.1 12.8 41 8.4 WNW 26 39 14 21 1014.5 1014.5 0.2

Other Formats:

Comma delimited format used in spreadsheet applications
http://www.bom.gov.au/fwo/IDN60801/IDN60801.94572.axf

JavaScript Object Notation format (JSON) in row-major order
http://www.bom.gov.au/fwo/IDN60801/IDN60801.94572.json